Time;durP1;ratioP1;P1;durP2;ratioP2;P2;SDS_P1;SDS_P2;PMS_P1;PMS_P2;Temp;Humidity;BMP_temperature;BMP_pressure;BME280_temperature;BME280_humidity;BME280_pressure;Samples;Min_cycle;Max_cycle;Signal;HPM_P1;HPM_P2
2023/08/21 00:03:47;;;;;;;9.25;6.50;;;;;;;26.29;65.32;100630.72;10342220;28;20046;-45
2023/08/21 00:08:49;;;;;;;7.70;7.00;;;;;;;26.23;65.73;100634.31;10340983;28;20207;-46
2023/08/21 00:13:50;;;;;;;9.43;6.22;;;;;;;26.14;65.32;100639.19;10329193;28;20967;-45
2023/08/21 00:18:53;;;;;;;6.97;6.40;;;;;;;25.99;66.26;100625.81;10346199;28;20056;-45
2023/08/21 00:23:55;;;;;;;7.25;6.75;;;;;;;25.98;65.98;100637.75;10337964;28;20512;-45
2023/08/21 00:28:56;;;;;;;7.28;6.70;;;;;;;26.03;66.17;100631.66;10344956;28;20049;-45
2023/08/21 00:33:58;;;;;;;7.03;6.10;;;;;;;25.96;66.58;100630.81;10338479;28;20056;-45
2023/08/21 00:38:59;;;;;;;7.93;6.13;;;;;;;25.96;66.46;100628.94;10341887;28;20107;-45
2023/08/21 00:44:01;;;;;;;8.60;7.82;;;;;;;25.86;65.99;100628.56;10340238;28;20136;-45
2023/08/21 00:49:02;;;;;;;7.10;6.57;;;;;;;25.87;66.05;100627.53;10335015;28;20053;-45
2023/08/21 00:54:04;;;;;;;7.60;6.95;;;;;;;25.88;66.80;100626.44;10332568;28;20128;-45
2023/08/21 00:59:05;;;;;;;7.72;6.60;;;;;;;25.89;65.98;100625.41;10334119;28;20930;-45
2023/08/21 01:04:08;;;;;;;7.40;6.75;;;;;;;25.84;66.31;100622.50;10340315;28;20060;-45
2023/08/21 01:09:29;;;;;;;10.50;8.07;;;;;;;25.74;67.45;100604.69;10343647;28;20070;-45
2023/08/21 01:14:36;;;;;;;8.10;7.30;;;;;;;25.81;66.60;100622.94;10343956;28;20080;-45
2023/08/21 01:19:43;;;;;;;6.70;6.10;;;;;;;25.74;66.93;100633.84;10329166;28;20056;-45
2023/08/21 01:24:44;;;;;;;6.90;6.30;;;;;;;25.73;66.51;100638.47;10345236;28;20060;-45
2023/08/21 01:29:46;;;;;;;7.53;6.82;;;;;;;25.71;66.75;100639.72;10339168;28;20091;-44
2023/08/21 01:34:50;;;;;;;7.07;6.50;;;;;;;25.64;67.42;100639.75;10341107;28;20403;-44
2023/08/21 01:39:51;;;;;;;6.80;6.30;;;;;;;25.64;67.17;100644.34;10342039;28;20125;-46
2023/08/21 01:44:53;;;;;;;7.45;6.38;;;;;;;25.63;67.05;100648.97;10335330;28;20053;-46
2023/08/21 01:49:55;;;;;;;7.13;6.50;;;;;;;25.62;67.09;100650.03;10348848;28;20050;-46
2023/08/21 01:54:56;;;;;;;6.90;6.35;;;;;;;25.59;67.38;100648.56;10348294;28;20092;-46
2023/08/21 01:59:58;;;;;;;6.85;6.15;;;;;;;25.55;67.56;100649.19;10346977;28;20056;-45
2023/08/21 02:04:59;;;;;;;6.85;6.15;;;;;;;25.53;66.98;100651.31;10331613;28;20037;-46
2023/08/21 02:10:01;;;;;;;7.68;6.95;;;;;;;25.43;67.77;100643.56;10314198;28;20049;-45
2023/08/21 02:15:02;;;;;;;8.20;7.40;;;;;;;25.44;66.95;100649.88;10342761;28;20056;-45
2023/08/21 02:20:04;;;;;;;7.88;7.18;;;;;;;25.35;66.92;100644.63;10344954;28;20050;-45
2023/08/21 02:25:06;;;;;;;6.75;6.15;;;;;;;25.28;67.18;100641.06;10345317;28;20052;-46
2023/08/21 02:30:08;;;;;;;7.03;6.32;;;;;;;25.28;67.03;100648.38;10338754;28;20053;-45
2023/08/21 02:35:10;;;;;;;7.05;6.45;;;;;;;25.27;67.43;100650.28;10345180;28;20131;-45
2023/08/21 02:40:12;;;;;;;7.80;6.45;;;;;;;25.29;67.09;100647.34;10344610;28;20120;-45
2023/08/21 02:45:13;;;;;;;7.53;6.82;;;;;;;25.25;67.29;100652.34;10343858;28;20065;-46
2023/08/21 02:50:14;;;;;;;6.85;6.25;;;;;;;25.17;67.39;100649.84;10341767;28;20065;-45
2023/08/21 02:55:16;;;;;;;7.78;7.00;;;;;;;25.11;67.24;100645.25;10344608;28;20050;-45
2023/08/21 03:00:17;;;;;;;7.45;6.85;;;;;;;24.97;67.95;100647.97;10347607;28;20139;-45
2023/08/21 03:05:19;;;;;;;7.13;6.53;;;;;;;24.99;67.44;100647.75;10334185;28;20702;-45
2023/08/21 03:10:22;;;;;;;7.13;6.43;;;;;;;24.85;67.76;100630.59;10346412;28;20065;-45
2023/08/21 03:15:24;;;;;;;7.95;7.25;;;;;;;24.92;68.02;100653.22;10349995;28;20050;-46
2023/08/21 03:20:25;;;;;;;7.30;6.65;;;;;;;24.90;67.75;100644.41;10344268;28;20049;-45
2023/08/21 03:25:27;;;;;;;7.38;6.43;;;;;;;24.90;67.54;100658.00;10333784;28;20061;-45
2023/08/21 03:30:29;;;;;;;7.17;6.57;;;;;;;24.69;68.14;100615.50;10332377;28;20064;-45
2023/08/21 03:35:30;;;;;;;8.43;7.72;;;;;;;24.84;67.57;100656.13;10344657;28;20058;-44
2023/08/21 03:40:32;;;;;;;7.40;6.70;;;;;;;24.83;67.35;100655.31;10346139;28;20065;-44
2023/08/21 03:45:33;;;;;;;7.05;6.45;;;;;;;24.80;68.70;100658.44;10340938;28;20054;-44
2023/08/21 03:50:35;;;;;;;6.43;5.93;;;;;;;24.81;68.54;100656.53;10342649;28;20041;-45
2023/08/21 03:55:36;;;;;;;7.47;6.75;;;;;;;24.81;68.42;100653.81;10328940;28;20054;-45
2023/08/21 04:00:38;;;;;;;8.15;6.35;;;;;;;24.78;67.87;100660.50;10340515;28;20057;-44
2023/08/21 04:05:39;;;;;;;6.32;5.72;;;;;;;24.74;67.66;100666.59;10341211;28;20835;-43
2023/08/21 04:10:41;;;;;;;7.40;6.65;;;;;;;24.73;68.51;100664.94;10342539;28;20050;-44
2023/08/21 04:15:46;;;;;;;8.45;7.65;;;;;;;24.74;68.52;100666.59;10341847;28;20142;-45
2023/08/21 04:20:48;;;;;;;9.10;7.50;;;;;;;24.73;67.97;100671.19;10336622;28;20065;-44
2023/08/21 04:25:50;;;;;;;6.83;6.23;;;;;;;24.65;67.78;100680.41;10336986;28;22549;-44
2023/08/21 04:30:51;;;;;;;7.32;6.63;;;;;;;24.60;69.20;100677.44;10322430;28;20235;-44
2023/08/21 04:35:52;;;;;;;7.28;6.53;;;;;;;24.61;69.57;100673.69;10339669;28;20064;-44
2023/08/21 04:40:54;;;;;;;7.70;6.88;;;;;;;24.62;69.04;100677.22;10334133;28;20049;-45
2023/08/21 04:45:55;;;;;;;7.07;6.10;;;;;;;24.58;69.76;100674.09;10340168;28;20104;-45
2023/08/21 04:50:57;;;;;;;6.88;6.28;;;;;;;24.52;69.43;100685.78;10343195;28;20203;-45
2023/08/21 04:56:00;;;;;;;6.95;6.22;;;;;;;24.48;70.23;100689.94;10324706;28;20551;-44
2023/08/21 05:01:01;;;;;;;7.32;6.55;;;;;;;24.49;71.49;100692.47;10325501;28;20742;-44
2023/08/21 05:06:02;;;;;;;7.50;5.97;;;;;;;24.38;69.08;100690.34;10322047;28;20057;-56
2023/08/21 05:11:04;;;;;;;7.30;6.57;;;;;;;24.47;70.24;100694.56;10313795;28;20053;-57
2023/08/21 05:16:05;;;;;;;6.10;5.60;;;;;;;24.48;68.83;100689.94;10323504;28;20054;-57
2023/08/21 05:21:07;;;;;;;9.68;6.95;;;;;;;24.47;68.21;100699.13;10332880;28;20100;-56
2023/08/21 05:26:09;;;;;;;7.35;5.90;;;;;;;24.41;68.09;100691.78;10328560;28;20064;-57
2023/08/21 05:31:10;;;;;;;6.50;5.50;;;;;;;24.42;68.01;100697.03;10310448;28;20077;-57
2023/08/21 05:36:12;;;;;;;6.03;5.38;;;;;;;24.43;67.90;100698.72;10330802;28;20108;-57
2023/08/21 05:41:17;;;;;;;5.70;5.22;;;;;;;24.53;68.60;100714.66;10317548;28;20385;-57
2023/08/21 05:46:18;;;;;;;6.55;5.82;;;;;;;24.39;68.88;100696.63;10309875;28;20075;-57
2023/08/21 05:51:20;;;;;;;6.25;5.20;;;;;;;24.57;68.21;100721.34;10323628;28;20192;-57
2023/08/21 05:56:22;;;;;;;6.57;5.97;;;;;;;24.42;68.84;100704.38;10335801;28;20054;-59
2023/08/21 06:01:24;;;;;;;5.53;5.03;;;;;;;24.67;68.74;100727.28;10337269;28;20089;-56
2023/08/21 06:06:26;;;;;;;5.55;5.05;;;;;;;24.73;68.95;100731.06;10324528;28;20100;-53
2023/08/21 06:11:27;;;;;;;8.85;6.00;;;;;;;24.76;68.80;100725.22;10322990;28;20060;-52
2023/08/21 06:16:28;;;;;;;6.40;5.80;;;;;;;24.79;69.34;100732.16;10317178;28;20495;-53
2023/08/21 06:21:30;;;;;;;6.32;5.72;;;;;;;24.74;69.67;100721.03;10336027;28;20820;-54
2023/08/21 06:26:31;;;;;;;10.38;5.05;;;;;;;24.87;69.30;100731.94;10343504;28;20131;-53
2023/08/21 06:31:33;;;;;;;5.72;5.22;;;;;;;24.95;70.88;100726.31;10338056;28;20049;-53
2023/08/21 06:36:34;;;;;;;7.20;5.70;;;;;;;24.87;69.24;100731.94;10333273;28;20155;-54
2023/08/21 06:41:36;;;;;;;6.43;5.32;;;;;;;24.91;69.54;100721.50;10330529;28;20164;-53
2023/08/21 06:46:37;;;;;;;5.82;5.32;;;;;;;25.13;68.72;100733.88;10338003;28;20476;-54
2023/08/21 06:51:39;;;;;;;6.10;5.22;;;;;;;25.23;68.07;100731.56;10321109;28;20037;-53
2023/08/21 06:56:41;;;;;;;6.10;5.50;;;;;;;25.41;67.39;100738.31;10321232;28;20041;-53
2023/08/21 07:01:43;;;;;;;6.35;5.75;;;;;;;25.51;67.07;100732.44;10324840;28;20186;-53
2023/08/21 07:06:44;;;;;;;5.57;5.07;;;;;;;25.67;66.30;100742.91;10307326;28;20501;-53
2023/08/21 07:11:46;;;;;;;7.90;5.70;;;;;;;25.82;66.27;100731.78;10342140;28;20056;-54
2023/08/21 07:16:47;;;;;;;6.70;5.90;;;;;;;25.93;66.02;100717.47;10334299;28;20064;-54
2023/08/21 07:21:49;;;;;;;5.55;4.90;;;;;;;26.16;65.53;100737.16;10307244;28;20561;-54
2023/08/21 07:26:50;;;;;;;6.70;5.18;;;;;;;26.16;64.68;100735.28;10322084;28;20046;-53
2023/08/21 07:31:51;;;;;;;6.30;5.63;;;;;;;26.28;65.16;100743.63;10339070;28;20115;-54
2023/08/21 07:36:54;;;;;;;7.15;5.78;;;;;;;26.49;65.02;100739.75;10340865;28;20107;-53
2023/08/21 07:41:55;;;;;;;6.07;5.40;;;;;;;26.63;64.53;100726.88;10324387;28;20080;-54
2023/08/21 07:46:57;;;;;;;5.78;5.28;;;;;;;26.81;64.02;100728.91;10338831;28;20692;-57
2023/08/21 07:51:58;;;;;;;6.15;5.57;;;;;;;26.92;63.00;100724.66;10324676;28;20509;-57
2023/08/21 07:57:00;;;;;;;7.70;5.45;;;;;;;26.90;62.53;100718.56;10323511;28;20046;-57
2023/08/21 08:02:02;;;;;;;6.53;5.88;;;;;;;26.98;62.97;100716.41;10336447;28;20057;-56
2023/08/21 08:07:04;;;;;;;7.20;6.55;;;;;;;27.08;61.84;100715.94;10337330;28;20062;-55
2023/08/21 08:12:05;;;;;;;5.97;5.47;;;;;;;27.16;61.78;100712.91;10335830;28;20129;-56
2023/08/21 08:17:09;;;;;;;7.90;5.97;;;;;;;27.39;62.60;100725.16;10336147;28;20049;-57
2023/08/21 08:22:11;;;;;;;6.68;6.18;;;;;;;27.58;61.96;100722.44;10334088;28;20194;-60
2023/08/21 08:27:12;;;;;;;7.32;5.75;;;;;;;27.63;61.46;100725.38;10320568;28;20498;-57
2023/08/21 08:32:14;;;;;;;6.77;6.00;;;;;;;27.72;61.50;100729.47;10333880;28;20056;-55
2023/08/21 08:37:16;;;;;;;5.70;5.30;;;;;;;27.75;61.95;100718.06;10324668;28;20045;-55
2023/08/21 08:42:18;;;;;;;6.57;5.95;;;;;;;27.98;60.75;100711.13;10322813;28;20053;-56
2023/08/21 08:47:20;;;;;;;6.93;6.37;;;;;;;28.02;60.77;100709.63;10316352;28;20085;-56
2023/08/21 08:52:23;;;;;;;6.95;6.28;;;;;;;28.16;61.18;100710.28;10335569;28;20061;-56
2023/08/21 08:57:25;;;;;;;7.68;6.25;;;;;;;28.35;60.43;100713.84;10338544;28;20143;-55
2023/08/21 09:02:26;;;;;;;6.97;5.88;;;;;;;28.57;60.43;100712.28;10339246;28;20140;-55
2023/08/21 09:07:28;;;;;;;6.53;6.03;;;;;;;28.85;60.35;100712.75;10321056;28;20069;-54
2023/08/21 09:12:32;;;;;;;7.40;6.30;;;;;;;29.09;59.61;100714.50;10327915;28;20046;-55
2023/08/21 09:17:33;;;;;;;7.10;6.20;;;;;;;29.16;57.70;100694.38;10338144;28;20599;-56
2023/08/21 09:22:35;;;;;;;6.47;5.57;;;;;;;29.34;58.75;100694.28;10338957;28;20128;-56
2023/08/21 09:27:38;;;;;;;7.03;6.32;;;;;;;29.64;57.61;100698.00;10346620;28;20077;-56
2023/08/21 09:32:55;;;;;;;6.63;6.03;;;;;;;29.91;55.52;100701.09;10346873;28;20581;-55
2023/08/21 09:37:56;;;;;;;6.47;5.75;;;;;;;30.00;56.13;100701.56;10347481;28;20057;-57
2023/08/21 09:42:59;;;;;;;7.57;6.13;;;;;;;30.08;55.37;100681.94;10343776;28;20056;-56
2023/08/21 09:48:01;;;;;;;6.40;5.80;;;;;;;30.27;55.06;100686.19;10346405;28;20053;-55
2023/08/21 09:53:05;;;;;;;9.10;5.97;;;;;;;30.60;54.79;100689.31;10341991;28;21759;-55
2023/08/21 09:58:08;;;;;;;6.88;5.72;;;;;;;30.87;53.35;100686.78;10328852;28;20100;-55
2023/08/21 10:03:11;;;;;;;6.38;5.78;;;;;;;30.99;51.07;100678.50;10343828;28;20550;-56
2023/08/21 10:08:15;;;;;;;5.90;5.38;;;;;;;30.98;51.38;100688.63;10344472;28;21186;-56
2023/08/21 10:13:18;;;;;;;8.00;4.47;;;;;;;31.23;50.77;100687.41;10345780;28;20049;-56
2023/08/21 10:18:23;;;;;;;5.28;4.75;;;;;;;31.57;49.50;100676.34;10329835;28;20112;-56
2023/08/21 10:23:31;;;;;;;6.75;4.60;;;;;;;31.81;48.52;100670.63;10335810;28;20075;-61
2023/08/21 10:28:59;;;;;;;6.28;4.28;;;;;;;32.37;47.10;100668.59;10322941;28;20092;-55
2023/08/21 10:34:06;;;;;;;6.82;3.85;;;;;;;32.72;44.62;100678.31;10340394;28;20046;-55
2023/08/21 10:39:19;;;;;;;3.95;2.63;;;;;;;32.79;42.25;100678.13;10342699;28;20668;-56
2023/08/21 10:44:42;;;;;;;2.95;1.63;;;;;;;32.97;40.20;100673.28;10337482;28;20163;-57
2023/08/21 10:49:48;;;;;;;3.80;2.67;;;;;;;33.15;40.39;100667.41;10340202;28;20054;-57
2023/08/21 10:54:52;;;;;;;5.45;3.88;;;;;;;33.21;41.67;100644.31;10341247;28;20132;-56
2023/08/21 11:00:16;;;;;;;6.70;4.43;;;;;;;33.44;42.21;100656.84;10327174;28;20041;-56
2023/08/21 11:05:18;;;;;;;3.78;3.22;;;;;;;33.47;41.91;100650.78;10317421;28;20084;-56
2023/08/21 11:10:24;;;;;;;4.15;2.88;;;;;;;33.85;40.53;100649.91;10336913;28;20087;-56
2023/08/21 11:15:27;;;;;;;5.15;2.70;;;;;;;34.18;39.89;100637.59;10338619;28;20049;-57
2023/08/21 11:20:31;;;;;;;4.85;2.90;;;;;;;34.37;38.32;100637.94;10336313;28;20045;-55
2023/08/21 11:25:34;;;;;;;4.68;2.92;;;;;;;34.67;37.72;100644.59;10338645;28;20053;-58
2023/08/21 11:30:36;;;;;;;5.28;2.58;;;;;;;34.74;36.74;100639.66;10338197;28;20052;-57
2023/08/21 11:35:38;;;;;;;4.22;2.83;;;;;;;34.75;37.34;100634.94;10334680;28;20045;-58
2023/08/21 11:40:40;;;;;;;4.22;2.95;;;;;;;35.01;36.24;100641.28;10337649;28;20411;-57
2023/08/21 11:45:41;;;;;;;4.15;1.95;;;;;;;34.91;34.68;100630.28;10333549;28;20605;-57
2023/08/21 11:50:59;;;;;;;2.08;1.83;;;;;;;34.83;34.79;100629.72;10338075;28;20050;-56
2023/08/21 11:56:01;;;;;;;1.83;1.42;;;;;;;34.88;34.51;100615.88;10334122;28;21073;-57
2023/08/21 12:01:04;;;;;;;1.55;1.30;;;;;;;34.82;34.18;100614.22;10333995;28;20596;-56
2023/08/21 12:06:10;;;;;;;1.45;1.02;;;;;;;34.92;33.18;100620.84;10333188;28;20061;-55
2023/08/21 12:11:11;;;;;;;1.85;1.10;;;;;;;35.01;32.58;100608.97;10323732;28;20054;-57
2023/08/21 12:16:13;;;;;;;1.23;0.90;;;;;;;34.97;32.27;100612.56;10339709;28;20052;-57
2023/08/21 12:21:15;;;;;;;2.50;1.33;;;;;;;34.97;33.20;100607.84;10332829;28;20132;-57
2023/08/21 12:26:20;;;;;;;1.77;1.30;;;;;;;34.81;34.71;100615.31;10340267;28;20450;-56
2023/08/21 12:31:22;;;;;;;1.92;1.77;;;;;;;34.93;34.41;100605.94;10339754;28;20053;-56
2023/08/21 12:36:24;;;;;;;2.10;1.90;;;;;;;35.05;33.58;100603.69;10338589;28;20060;-57
2023/08/21 12:41:25;;;;;;;3.35;1.50;;;;;;;35.23;33.40;100592.03;10338633;28;20049;-56
2023/08/21 12:46:28;;;;;;;4.75;2.35;;;;;;;35.39;34.87;100603.09;10322951;28;20061;-57
2023/08/21 12:51:30;;;;;;;2.67;2.47;;;;;;;35.40;34.19;100597.28;10335150;28;20713;-56
2023/08/21 12:56:31;;;;;;;1.85;1.35;;;;;;;35.20;33.62;100584.28;10337785;28;20075;-57
2023/08/21 13:01:34;;;;;;;1.73;1.00;;;;;;;34.82;33.67;100578.28;10315467;28;20046;-57
2023/08/21 13:06:35;;;;;;;2.50;1.98;;;;;;;34.42;33.20;100573.56;10335517;28;20045;-57
2023/08/21 13:11:37;;;;;;;1.75;0.90;;;;;;;34.15;33.97;100569.91;10323361;28;20046;-57
2023/08/21 13:16:38;;;;;;;2.28;1.55;;;;;;;33.85;34.86;100564.34;10334442;28;20062;-58
2023/08/21 13:21:40;;;;;;;2.00;1.80;;;;;;;33.64;35.91;100567.84;10330200;28;20707;-56
2023/08/21 13:26:42;;;;;;;2.75;1.67;;;;;;;33.75;35.53;100571.50;10330603;28;20068;-57
2023/08/21 13:31:43;;;;;;;3.25;1.30;;;;;;;33.88;34.19;100555.50;10320471;28;20628;-57
2023/08/21 13:36:45;;;;;;;3.03;1.50;;;;;;;34.03;35.65;100544.47;10335810;28;20069;-57
2023/08/21 13:41:47;;;;;;;;;;;;;;;34.22;34.94;100563.31;10304939;28;20796;-61
2023/08/21 13:46:49;;;;;;;2.53;1.60;;;;;;;34.15;34.97;100561.63;10335049;28;19936;-57
2023/08/21 13:51:50;;;;;;;3.63;1.45;;;;;;;34.04;35.28;100540.63;10317416;28;20260;-57
2023/08/21 13:56:52;;;;;;;;;;;;;;;33.73;36.17;100551.59;10335175;28;20050;-57
2023/08/21 14:01:53;;;;;;;1.58;1.48;;;;;;;33.34;36.80;100549.19;10305782;28;19929;-58
2023/08/21 14:06:55;;;;;;;;;;;;;;;33.21;37.17;100546.91;10321683;28;20054;-58
2023/08/21 14:11:56;;;;;;;1.75;1.65;;;;;;;33.11;37.53;100545.75;10338693;28;19929;-56
2023/08/21 14:16:58;;;;;;;3.35;2.17;;;;;;;33.26;38.68;100535.94;10327107;28;20524;-55
2023/08/21 14:22:00;;;;;;;2.97;2.30;;;;;;;33.24;38.75;100536.19;10339967;28;20093;-57
2023/08/21 14:27:01;;;;;;;3.88;2.03;;;;;;;33.28;38.69;100525.44;10328464;28;20115;-57
2023/08/21 14:32:03;;;;;;;;;;;;;;;33.21;39.31;100519.34;10338589;28;20151;-57
2023/08/21 14:37:05;;;;;;;3.25;1.90;;;;;;;33.12;38.52;100508.00;10341761;28;19980;-56
2023/08/21 14:42:06;;;;;;;2.78;1.50;;;;;;;33.07;38.88;100510.69;10336514;28;20135;-56
2023/08/21 14:47:08;;;;;;;;;;;;;;;32.95;38.18;100514.50;10320748;28;20151;-58
2023/08/21 14:52:09;;;;;;;4.03;3.53;;;;;;;32.86;38.68;100505.06;10338279;28;20077;-56
2023/08/21 14:57:11;;;;;;;2.25;1.65;;;;;;;32.75;39.09;100493.16;10335751;28;20292;-56
2023/08/21 15:02:12;;;;;;;2.17;1.98;;;;;;;32.63;39.21;100481.47;10329860;28;20062;-57
2023/08/21 15:07:14;;;;;;;2.97;2.35;;;;;;;32.47;39.65;100486.03;10331585;28;20131;-57
2023/08/21 15:12:15;;;;;;;2.60;2.10;;;;;;;32.32;39.85;100483.16;10347082;28;20737;-57
2023/08/21 15:17:18;;;;;;;2.60;2.40;;;;;;;32.20;40.44;100473.19;10345531;28;20758;-57
2023/08/21 15:22:21;;;;;;;2.72;2.53;;;;;;;32.24;40.01;100478.97;10332612;28;20056;-57
2023/08/21 15:27:22;;;;;;;4.70;2.53;;;;;;;32.23;40.39;100472.66;10346310;28;20060;-57
2023/08/21 15:32:24;;;;;;;5.50;2.28;;;;;;;32.21;40.27;100479.50;10347061;28;20136;-55
2023/08/21 15:37:25;;;;;;;3.55;1.80;;;;;;;32.12;40.70;100461.81;10345344;28;20135;-56
2023/08/21 15:42:26;;;;;;;2.10;1.90;;;;;;;32.08;40.24;100462.31;10349969;28;20157;-56
2023/08/21 15:47:28;;;;;;;2.72;1.85;;;;;;;32.04;40.67;100461.16;10350204;28;20077;-56
2023/08/21 15:52:48;;;;;;;2.05;1.75;;;;;;;32.01;40.81;100453.44;10340444;28;20068;-60
2023/08/21 15:57:50;;;;;;;3.25;2.30;;;;;;;31.90;41.12;100446.16;10347445;28;20892;-56
2023/08/21 16:02:51;;;;;;;1.50;1.33;;;;;;;31.89;40.79;100441.78;10342004;28;20049;-56
2023/08/21 16:07:54;;;;;;;2.85;1.60;;;;;;;31.82;40.63;100430.13;10345450;28;20046;-56
2023/08/21 16:12:55;;;;;;;2.58;1.35;;;;;;;31.77;40.83;100430.06;10343056;28;20139;-57
2023/08/21 16:17:57;;;;;;;1.92;1.48;;;;;;;31.79;41.11;100431.47;10346867;28;20802;-56
2023/08/21 16:22:58;;;;;;;;;;;;;;;31.76;41.06;100437.50;10345167;28;20065;-56
2023/08/21 16:28:00;;;;;;;2.90;1.47;;;;;;;31.65;41.11;100442.09;10332190;28;19982;-55
2023/08/21 16:33:03;;;;;;;2.85;1.40;;;;;;;31.49;41.58;100430.06;10334023;28;20049;-56
2023/08/21 16:38:04;;;;;;;2.20;1.33;;;;;;;31.48;41.89;100424.81;10345039;28;20049;-55
2023/08/21 16:43:06;;;;;;;2.33;1.30;;;;;;;31.40;41.92;100422.53;10345318;28;20066;-55
2023/08/21 16:48:08;;;;;;;2.00;1.38;;;;;;;31.37;42.13;100427.44;10349515;28;20212;-55
2023/08/21 16:53:10;;;;;;;2.20;1.40;;;;;;;31.33;42.71;100423.56;10344880;28;20137;-55
2023/08/21 16:58:23;;;;;;;3.10;1.67;;;;;;;31.21;42.78;100414.59;10348635;28;20053;-55
2023/08/21 17:03:25;;;;;;;2.95;1.63;;;;;;;31.17;43.11;100408.00;10345223;28;20138;-55
2023/08/21 17:08:26;;;;;;;1.70;1.60;;;;;;;31.16;42.76;100417.31;10329805;28;20159;-55
2023/08/21 17:13:28;;;;;;;6.90;1.80;;;;;;;31.12;42.88;100421.66;10343252;28;20119;-56
2023/08/21 17:18:29;;;;;;;1.73;1.35;;;;;;;31.00;43.54;100408.03;10347148;28;20753;-57
2023/08/21 17:23:31;;;;;;;4.13;1.95;;;;;;;30.98;43.85;100410.19;10345034;28;20125;-55
2023/08/21 17:28:32;;;;;;;2.80;1.85;;;;;;;30.97;44.73;100412.13;10345342;28;20127;-55
2023/08/21 17:33:37;;;;;;;5.13;1.92;;;;;;;30.92;44.73;100411.22;10345092;28;20061;-55
2023/08/21 17:38:38;;;;;;;3.25;1.92;;;;;;;30.87;44.50;100408.38;10340070;28;20085;-55
2023/08/21 17:43:40;;;;;;;3.00;2.10;;;;;;;30.70;45.45;100400.19;10343342;28;20851;-55
2023/08/21 17:48:42;;;;;;;4.10;2.08;;;;;;;30.67;45.60;100402.38;10354795;28;20399;-55
2023/08/21 17:53:44;;;;;;;2.83;1.70;;;;;;;30.63;45.93;100412.22;10353971;28;20130;-56
2023/08/21 17:58:45;;;;;;;2.75;2.03;;;;;;;30.61;46.30;100411.63;10359463;28;20045;-56
2023/08/21 18:03:47;;;;;;;3.30;2.38;;;;;;;30.49;46.32;100413.63;10353540;28;20872;-56
2023/08/21 18:08:49;;;;;;;2.10;1.85;;;;;;;30.41;46.53;100411.34;10359173;28;20065;-56
2023/08/21 18:13:51;;;;;;;;;;;;;;;30.19;46.95;100398.34;10358226;28;20061;-59
2023/08/21 18:18:52;;;;;;;2.38;1.92;;;;;;;30.33;47.69;100423.56;10341875;28;19929;-57
2023/08/21 18:23:53;;;;;;;2.50;1.83;;;;;;;30.30;48.04;100422.13;10342246;28;20049;-56
2023/08/21 18:28:55;;;;;;;3.10;2.40;;;;;;;30.23;48.62;100426.94;10342870;28;20065;-55
2023/08/21 18:33:56;;;;;;;2.93;1.90;;;;;;;30.13;48.92;100437.75;10325314;28;20058;-55
2023/08/21 18:38:58;;;;;;;2.00;1.80;;;;;;;30.06;49.34;100439.84;10334703;28;20050;-55
2023/08/21 18:44:00;;;;;;;2.83;2.17;;;;;;;29.89;49.84;100443.41;10358674;28;20836;-56
2023/08/21 18:49:01;;;;;;;3.13;1.80;;;;;;;29.70;50.32;100437.28;10355085;28;20132;-56
2023/08/21 18:54:03;;;;;;;5.63;3.27;;;;;;;29.65;50.99;100447.31;10344414;28;20147;-55
2023/08/21 18:59:04;;;;;;;4.03;2.28;;;;;;;29.65;51.52;100459.13;10339002;28;20049;-56
2023/08/21 19:04:06;;;;;;;3.30;2.47;;;;;;;29.56;52.03;100463.31;10340975;28;20053;-57
2023/08/21 19:09:07;;;;;;;3.13;2.40;;;;;;;29.42;52.32;100462.78;10349452;28;20622;-56
2023/08/21 19:14:08;;;;;;;2.80;2.30;;;;;;;29.35;52.46;100473.91;10348473;28;20671;-56
2023/08/21 19:19:10;;;;;;;3.00;2.70;;;;;;;29.18;52.43;100460.06;10350814;28;20055;-55
2023/08/21 19:24:12;;;;;;;3.90;3.20;;;;;;;29.20;52.89;100481.75;10346415;28;20049;-55
2023/08/21 19:29:13;;;;;;;3.93;3.03;;;;;;;29.13;52.43;100472.88;10346796;28;20096;-55
2023/08/21 19:34:15;;;;;;;4.15;2.67;;;;;;;29.00;52.39;100472.03;10331757;28;20045;-56
2023/08/21 19:39:16;;;;;;;4.90;3.53;;;;;;;28.85;53.05;100467.03;10346543;28;20498;-55
2023/08/21 19:44:18;;;;;;;3.70;2.73;;;;;;;28.88;53.07;100477.53;10346591;28;20151;-56
2023/08/21 19:49:19;;;;;;;4.00;3.33;;;;;;;28.87;53.48;100480.50;10323797;28;20144;-56
2023/08/21 19:54:21;;;;;;;3.07;2.83;;;;;;;28.73;53.29;100474.44;10349845;28;20057;-56
2023/08/21 19:59:23;;;;;;;4.60;3.50;;;;;;;28.64;53.54;100479.44;10345471;28;20708;-55
2023/08/21 20:04:24;;;;;;;4.13;3.53;;;;;;;28.58;53.88;100488.56;10350813;28;20057;-56
2023/08/21 20:09:26;;;;;;;5.03;3.57;;;;;;;28.52;53.66;100484.88;10346425;28;20066;-56
2023/08/21 20:14:27;;;;;;;4.22;3.47;;;;;;;28.39;54.03;100479.66;10344963;28;20052;-55
2023/08/21 20:19:29;;;;;;;4.47;4.07;;;;;;;28.30;54.40;100486.53;10348543;28;20104;-56
2023/08/21 20:24:30;;;;;;;4.17;3.10;;;;;;;28.29;54.52;100487.59;10343322;28;20049;-55
2023/08/21 20:29:31;;;;;;;4.93;3.80;;;;;;;28.12;55.22;100479.22;10349750;28;20443;-56
2023/08/21 20:34:33;;;;;;;4.10;3.00;;;;;;;28.08;55.56;100494.47;10352408;28;20574;-59
2023/08/21 20:39:34;;;;;;;3.90;3.50;;;;;;;28.08;55.86;100492.56;10343750;28;20057;-55
2023/08/21 20:44:36;;;;;;;4.27;3.87;;;;;;;27.95;55.83;100488.06;10346147;28;20108;-55
2023/08/21 20:49:39;;;;;;;4.30;3.90;;;;;;;27.88;56.00;100484.63;10343820;28;20054;-55
2023/08/21 20:54:41;;;;;;;;;;;;;;;27.92;55.60;100484.97;10344820;28;20065;-60
2023/08/21 20:59:43;;;;;;;7.03;4.03;;;;;;;27.85;55.59;100485.09;10322270;28;19921;-53
2023/08/21 21:04:44;;;;;;;6.03;5.40;;;;;;;27.74;56.50;100472.19;10338934;28;20168;-54
2023/08/21 21:09:46;;;;;;;4.47;3.93;;;;;;;27.74;56.99;100480.41;10337093;28;20506;-53
2023/08/21 21:14:48;;;;;;;5.93;4.20;;;;;;;27.67;56.98;100484.06;10338333;28;20192;-53
2023/08/21 21:19:49;;;;;;;4.15;3.75;;;;;;;27.70;57.48;100493.72;10328767;28;20053;-53
2023/08/21 21:24:51;;;;;;;5.72;3.78;;;;;;;27.69;57.00;100492.03;10344507;28;20445;-54
2023/08/21 21:29:52;;;;;;;5.90;3.83;;;;;;;27.70;57.19;100488.25;10346610;28;20741;-53
2023/08/21 21:34:53;;;;;;;4.20;3.78;;;;;;;27.67;57.31;100485.97;10341442;28;20132;-53
2023/08/21 21:39:55;;;;;;;4.17;3.77;;;;;;;27.60;57.68;100482.50;10343455;28;20062;-54
2023/08/21 21:44:57;;;;;;;5.28;3.88;;;;;;;27.58;57.50;100484.59;10350625;28;20572;-54
2023/08/21 21:49:58;;;;;;;4.63;4.22;;;;;;;27.55;57.48;100474.13;10345224;28;20164;-59
2023/08/21 21:54:59;;;;;;;4.38;3.97;;;;;;;27.49;57.52;100484.94;10339847;28;20121;-54
2023/08/21 22:00:01;;;;;;;4.70;4.22;;;;;;;27.48;57.87;100485.97;10344767;28;20129;-54
2023/08/21 22:05:03;;;;;;;5.87;4.50;;;;;;;27.41;57.87;100474.28;10343165;28;20072;-53
2023/08/21 22:10:07;;;;;;;5.18;4.72;;;;;;;27.37;57.72;100474.97;10307396;28;1139097;-54
2023/08/21 22:15:08;;;;;;;4.75;4.38;;;;;;;27.28;57.93;100475.28;10344042;28;20060;-54
2023/08/21 22:20:12;;;;;;;3.95;3.60;;;;;;;27.28;59.28;100475.28;10349002;28;20246;-54
2023/08/21 22:25:15;;;;;;;5.30;3.90;;;;;;;27.24;57.97;100467.78;10334686;28;20065;-54
2023/08/21 22:30:16;;;;;;;;;;;;;;;27.21;58.84;100466.31;10332538;28;20064;-54
2023/08/21 22:35:18;;;;;;;4.45;3.42;;;;;;;27.20;58.47;100472.00;10346218;28;19936;-54
2023/08/21 22:40:24;;;;;;;3.97;3.65;;;;;;;27.13;58.09;100459.28;10346261;28;20057;-53
2023/08/21 22:45:26;;;;;;;4.70;4.28;;;;;;;27.10;57.77;100457.00;10346303;28;20049;-54
2023/08/21 22:50:27;;;;;;;4.47;4.05;;;;;;;26.99;59.03;100460.47;10344436;28;20057;-53
2023/08/21 22:55:31;;;;;;;3.78;3.40;;;;;;;26.97;59.02;100459.88;10334019;28;20049;-53
2023/08/21 23:00:32;;;;;;;3.97;3.58;;;;;;;26.91;58.71;100447.13;10342430;28;21469;-53
2023/08/21 23:05:34;;;;;;;4.20;3.65;;;;;;;26.86;59.09;100449.69;10345945;28;20099;-53
2023/08/21 23:10:35;;;;;;;5.30;3.63;;;;;;;26.77;59.50;100455.47;10344353;28;20057;-54
2023/08/21 23:15:43;;;;;;;5.57;3.58;;;;;;;26.75;59.99;100454.88;10352313;28;20062;-53